Time;durP1;ratioP1;P1;durP2;ratioP2;P2;SDS_P1;SDS_P2;PMS_P1;PMS_P2;Temp;Humidity;BMP_temperature;BMP_pressure;BME280_temperature;BME280_humidity;BME280_pressure;Samples;Min_cycle;Max_cycle;Signal;HPM_P1;HPM_P2
2023/04/11 00:00:24;;;;;;;10.50;6.25;;;;;;;24.16;36.15;99772.06;4330989;33;34685;-61
2023/04/11 00:02:53;;;;;;;8.85;6.28;;;;;;;24.14;36.32;99766.81;4331124;33;34477;-61
2023/04/11 00:05:21;;;;;;;10.02;6.12;;;;;;;24.13;36.37;99762.44;4329991;33;32694;-61
2023/04/11 00:07:49;;;;;;;7.80;6.00;;;;;;;24.13;36.41;99759.72;4329455;33;34673;-62
2023/04/11 00:10:17;;;;;;;8.00;5.68;;;;;;;24.11;36.50;99756.41;4329691;33;33704;-61
2023/04/11 00:12:45;;;;;;;10.10;6.37;;;;;;;24.11;36.53;99758.31;4331127;33;34680;-61
2023/04/11 00:15:14;;;;;;;8.63;5.75;;;;;;;24.11;36.62;99752.84;4317386;33;33557;-60
2023/04/11 00:17:44;;;;;;;;;;;;;;;24.09;36.60;99750.34;4331118;33;33623;-60
2023/04/11 00:20:12;;;;;;;9.03;5.60;;;;;;;24.20;36.42;99740.53;4330188;33;33154;-61
2023/04/11 00:22:40;;;;;;;7.82;5.45;;;;;;;24.12;36.58;99746.31;4317139;33;33883;-61
2023/04/11 00:25:08;;;;;;;9.75;5.87;;;;;;;24.09;36.72;99741.34;4330046;33;33436;-61
2023/04/11 00:27:36;;;;;;;7.18;5.22;;;;;;;24.06;36.77;99742.66;4317484;33;33716;-61
2023/04/11 00:30:06;;;;;;;8.18;5.50;;;;;;;24.04;36.83;99736.56;4317162;33;34004;-61
2023/04/11 00:32:34;;;;;;;8.02;5.45;;;;;;;24.03;36.91;99743.09;4317468;33;34547;-61
2023/04/11 00:35:02;;;;;;;7.70;6.22;;;;;;;24.04;36.90;99739.31;4329433;33;34093;-60
2023/04/11 00:37:34;;;;;;;8.30;5.50;;;;;;;24.05;36.88;99742.84;4328900;33;34021;-61
2023/04/11 00:40:04;;;;;;;7.40;5.45;;;;;;;24.03;36.92;99739.53;4329458;33;34316;-61
2023/04/11 00:42:32;;;;;;;8.05;5.22;;;;;;;24.03;36.92;99737.66;4317961;33;33098;-61
2023/04/11 00:45:00;;;;;;;7.10;5.35;;;;;;;24.04;37.02;99731.12;4329062;33;34140;-61
2023/04/11 00:47:27;;;;;;;7.20;5.70;;;;;;;24.04;37.17;99722.12;4329222;33;32862;-61
2023/04/11 00:49:55;;;;;;;11.70;5.32;;;;;;;24.03;37.20;99717.75;4329371;33;33695;-61
2023/04/11 00:52:23;;;;;;;9.15;5.70;;;;;;;24.01;37.25;99715.22;4316640;33;33589;-61
2023/04/11 00:54:50;;;;;;;8.27;5.60;;;;;;;24.01;37.32;99723.41;4330773;33;33097;-61
2023/04/11 00:57:18;;;;;;;10.27;5.85;;;;;;;23.99;37.35;99717.38;4328973;33;34532;-61
2023/04/11 00:59:49;;;;;;;8.23;5.65;;;;;;;23.99;37.35;99725.53;4316839;33;33158;-60
2023/04/11 01:02:17;;;;;;;9.18;5.70;;;;;;;23.98;37.40;99721.16;4330323;33;33404;-61
2023/04/11 01:04:45;;;;;;;8.30;5.10;;;;;;;23.98;37.36;99729.34;4329288;33;32725;-61
2023/04/11 01:07:12;;;;;;;7.55;5.30;;;;;;;23.97;37.35;99722.22;4304459;33;32759;-61
2023/04/11 01:09:40;;;;;;;8.23;6.05;;;;;;;23.97;37.36;99724.09;4330433;33;33689;-62
2023/04/11 01:12:08;;;;;;;9.70;5.82;;;;;;;23.97;37.38;99718.66;4316879;33;32955;-62
2023/04/11 01:14:35;;;;;;;9.98;4.93;;;;;;;23.96;37.42;99711.53;4328601;33;33205;-61
2023/04/11 01:17:03;;;;;;;11.12;6.00;;;;;;;23.95;37.37;99713.44;4328904;33;34133;-61
2023/04/11 01:19:31;;;;;;;12.30;5.70;;;;;;;23.95;37.33;99707.16;4330553;33;34641;-61
2023/04/11 01:21:59;;;;;;;7.85;5.35;;;;;;;23.93;37.27;99707.41;4329641;33;33799;-61
2023/04/11 01:24:27;;;;;;;9.70;5.28;;;;;;;23.93;37.26;99705.50;4317064;33;33851;-61
2023/04/11 01:26:55;;;;;;;8.32;5.60;;;;;;;23.93;37.25;99699.22;4304872;33;32752;-61
2023/04/11 01:29:23;;;;;;;7.40;5.37;;;;;;;23.93;37.24;99700.06;4328202;33;34783;-61
2023/04/11 01:31:51;;;;;;;8.50;5.40;;;;;;;23.90;37.29;99697.78;4330101;33;33719;-61
2023/04/11 01:34:18;;;;;;;7.45;5.30;;;;;;;23.91;37.28;99699.44;4329745;33;32726;-61
2023/04/11 01:36:47;;;;;;;9.88;5.22;;;;;;;23.91;37.29;99696.72;4318007;33;33594;-60
2023/04/11 01:39:14;;;;;;;8.13;5.20;;;;;;;23.90;37.27;99694.22;4330885;33;34482;-61
2023/04/11 01:41:42;;;;;;;11.52;5.60;;;;;;;23.90;37.28;99694.22;4330848;33;34366;-61
2023/04/11 01:44:09;;;;;;;6.35;4.82;;;;;;;23.88;37.31;99699.91;4318591;33;32385;-61
2023/04/11 01:46:37;;;;;;;7.68;5.15;;;;;;;23.87;37.33;99687.34;4330788;33;33952;-61
2023/04/11 01:49:05;;;;;;;8.23;5.82;;;;;;;23.88;37.33;99693.66;4306722;33;34716;-61
2023/04/11 01:51:32;;;;;;;6.80;4.97;;;;;;;23.87;37.34;99686.50;4318539;33;33669;-60
2023/04/11 01:54:00;;;;;;;8.43;5.25;;;;;;;23.87;37.32;99689.22;4324045;33;33525;-61
2023/04/11 01:56:28;;;;;;;6.62;4.80;;;;;;;23.86;37.42;99690.31;4332030;33;33847;-61
2023/04/11 01:58:57;;;;;;;9.45;5.35;;;;;;;23.86;37.43;99695.75;4331354;33;34853;-60
2023/04/11 02:01:26;;;;;;;7.10;5.22;;;;;;;23.86;37.44;99693.03;4331982;33;34138;-60
2023/04/11 02:03:54;;;;;;;8.48;5.60;;;;;;;23.84;37.50;99679.66;4330690;33;34319;-61
2023/04/11 02:06:22;;;;;;;7.80;5.45;;;;;;;23.83;37.57;99682.63;4331631;33;34813;-60
2023/04/11 02:08:50;;;;;;;8.40;5.20;;;;;;;23.83;37.62;99682.63;4332277;33;34726;-60
2023/04/11 02:11:18;;;;;;;8.70;4.97;;;;;;;23.83;37.66;99678.00;4331689;33;33820;-61
2023/04/11 02:13:48;;;;;;;6.03;4.47;;;;;;;23.82;37.68;99672.75;4331715;33;33055;-61
2023/04/11 02:16:16;;;;;;;7.47;5.53;;;;;;;23.82;37.67;99679.03;4330708;33;33766;-61
2023/04/11 02:18:45;;;;;;;6.25;4.93;;;;;;;23.81;37.70;99680.09;4331630;33;33958;-60
2023/04/11 02:21:12;;;;;;;7.07;5.18;;;;;;;23.81;37.71;99679.28;4306136;33;34185;-61
2023/04/11 02:23:40;;;;;;;6.80;5.00;;;;;;;23.81;37.72;99673.81;4331917;33;32844;-61
2023/04/11 02:26:08;;;;;;;8.52;4.72;;;;;;;23.80;37.74;99673.00;4318490;33;34681;-61
2023/04/11 02:28:35;;;;;;;7.57;4.90;;;;;;;23.81;37.78;99673.81;4330325;33;34023;-61
2023/04/11 02:31:04;;;;;;;6.85;4.55;;;;;;;23.81;37.80;99671.09;4318496;33;32588;-61
2023/04/11 02:33:32;;;;;;;8.85;4.57;;;;;;;23.80;37.85;99666.72;4330391;33;31880;-61
2023/04/11 02:35:59;;;;;;;7.20;5.07;;;;;;;23.81;37.79;99662.94;4329813;33;33609;-60
2023/04/11 02:38:27;;;;;;;6.57;4.87;;;;;;;23.79;37.78;99665.87;4330239;33;34013;-61
2023/04/11 02:40:55;;;;;;;7.57;5.12;;;;;;;23.80;37.84;99658.53;4331625;33;34498;-61
2023/04/11 02:43:22;;;;;;;8.13;5.07;;;;;;;23.80;37.85;99656.66;4331551;33;33430;-61
2023/04/11 02:45:50;;;;;;;6.78;4.90;;;;;;;23.79;37.81;99656.91;4331788;33;33828;-61
2023/04/11 02:48:26;;;;;;;7.50;5.03;;;;;;;23.79;37.86;99654.16;4329647;33;34095;-61
2023/04/11 02:50:53;;;;;;;6.45;4.65;;;;;;;23.79;37.82;99659.63;4331227;33;34755;-61
2023/04/11 02:53:22;;;;;;;6.62;4.85;;;;;;;23.78;37.85;99657.94;4318670;33;32780;-61
2023/04/11 02:55:50;;;;;;;6.78;5.20;;;;;;;23.78;37.86;99666.97;4330398;33;34554;-61
2023/04/11 02:58:18;;;;;;;6.85;5.10;;;;;;;23.78;37.84;99666.97;4331454;33;33975;-61
2023/04/11 03:00:48;;;;;;;7.37;4.97;;;;;;;23.77;37.84;99662.56;4331595;33;34292;-61
2023/04/11 03:03:15;;;;;;;5.93;4.43;;;;;;;23.76;37.84;99660.06;4318707;33;33594;-61
2023/04/11 03:05:44;;;;;;;7.50;5.12;;;;;;;23.78;37.79;99663.38;4330254;33;33864;-61
2023/04/11 03:08:12;;;;;;;6.55;4.70;;;;;;;23.75;37.84;99667.41;4330196;33;33893;-61
2023/04/11 03:10:40;;;;;;;7.97;5.12;;;;;;;23.75;37.86;99663.88;4331654;33;34362;-61
2023/04/11 03:13:08;;;;;;;6.80;4.82;;;;;;;23.74;37.88;99668.47;4331408;33;34157;-60
2023/04/11 03:15:36;;;;;;;7.15;4.97;;;;;;;23.74;37.88;99667.66;4330343;33;34510;-60
2023/04/11 03:18:04;;;;;;;6.55;4.62;;;;;;;23.74;37.92;99660.31;4318556;33;33707;-61
2023/04/11 03:20:32;;;;;;;6.72;4.45;;;;;;;23.73;37.93;99661.34;4329916;33;34565;-61
2023/04/11 03:23:00;;;;;;;7.65;5.07;;;;;;;23.72;37.98;99665.13;4318324;33;33317;-61
2023/04/11 03:25:28;;;;;;;7.60;4.60;;;;;;;23.73;38.00;99663.25;4331917;33;33701;-61
2023/04/11 03:27:56;;;;;;;6.87;4.47;;;;;;;23.72;37.98;99656.16;4330968;33;34677;-60
2023/04/11 03:30:24;;;;;;;7.07;4.85;;;;;;;23.71;37.96;99662.66;4331569;33;33598;-60
2023/04/11 03:32:51;;;;;;;6.97;5.03;;;;;;;23.71;37.94;99651.75;4330222;33;32011;-61
2023/04/11 03:35:19;;;;;;;6.50;4.40;;;;;;;23.71;37.94;99657.22;4339523;33;33723;-60
2023/04/11 03:37:48;;;;;;;6.07;4.62;;;;;;;23.70;37.93;99658.28;4344941;33;33688;-60
2023/04/11 03:40:17;;;;;;;6.45;4.40;;;;;;;23.68;37.98;99658.50;4346314;33;34717;-61
2023/04/11 03:42:45;;;;;;;5.90;4.43;;;;;;;23.70;37.94;99656.38;4332548;33;34003;-60
2023/04/11 03:45:13;;;;;;;6.68;4.62;;;;;;;23.69;37.95;99652.00;4346440;33;34621;-60
2023/04/11 03:47:41;;;;;;;6.45;4.68;;;;;;;23.67;37.97;99648.66;4346379;33;34771;-61
2023/04/11 03:50:10;;;;;;;8.15;4.60;;;;;;;23.66;37.99;99647.84;4345695;33;33635;-61
2023/04/11 03:52:38;;;;;;;7.47;4.43;;;;;;;23.66;37.99;99647.00;4332929;33;33556;-60
2023/04/11 03:55:08;;;;;;;6.35;4.43;;;;;;;23.66;37.98;99638.84;4346240;33;32787;-61
2023/04/11 03:57:36;;;;;;;6.25;4.30;;;;;;;23.66;37.94;99639.66;4345704;33;34637;-61
2023/04/11 04:00:05;;;;;;;7.53;4.80;;;;;;;23.66;37.97;99644.28;4343430;33;33340;-61
2023/04/11 04:02:41;;;;;;;6.62;4.75;;;;;;;23.65;37.99;99638.00;4344901;33;33190;-61
2023/04/11 04:05:10;;;;;;;6.12;4.35;;;;;;;23.64;37.97;99636.34;4344432;33;33668;-61
2023/04/11 04:07:38;;;;;;;5.72;4.05;;;;;;;23.65;37.96;99629.00;4332516;33;33757;-61
2023/04/11 04:10:06;;;;;;;7.72;4.87;;;;;;;23.64;37.99;99627.31;4346198;33;34015;-61
2023/04/11 04:12:34;;;;;;;8.98;4.07;;;;;;;23.62;38.01;99633.00;4345219;33;33589;-61
2023/04/11 04:15:03;;;;;;;7.25;3.97;;;;;;;23.61;38.02;99631.31;4346203;33;33754;-61
2023/04/11 04:17:30;;;;;;;6.53;4.37;;;;;;;23.60;38.00;99620.69;4344698;33;33820;-61
2023/04/11 04:20:04;;;;;;;7.37;4.57;;;;;;;23.60;37.98;99626.13;4345391;33;33233;-61
2023/04/11 04:22:34;;;;;;;6.03;4.18;;;;;;;23.60;38.01;99632.41;4344753;33;34125;-61
2023/04/11 04:25:02;;;;;;;6.00;4.30;;;;;;;23.61;37.98;99631.31;4344354;33;33646;-61
2023/04/11 04:27:31;;;;;;;6.00;4.15;;;;;;;23.60;37.99;99632.41;4345612;33;33603;-60
2023/04/11 04:29:59;;;;;;;6.90;4.18;;;;;;;23.60;37.99;99632.41;4345893;33;34252;-61
2023/04/11 04:32:31;;;;;;;5.68;4.35;;;;;;;23.59;37.98;99630.72;4332711;33;33485;-61
2023/04/11 04:35:00;;;;;;;6.37;4.20;;;;;;;23.60;37.99;99634.28;4337489;33;34800;-61
2023/04/11 04:37:28;;;;;;;5.80;3.95;;;;;;;23.61;37.98;99635.94;4317912;33;33399;-60
2023/04/11 04:40:00;;;;;;;6.28;4.68;;;;;;;23.60;37.96;99632.41;4330870;33;33800;-60
2023/04/11 04:42:29;;;;;;;7.75;4.55;;;;;;;23.60;37.95;99626.13;4317640;33;33441;-61
2023/04/11 04:44:59;;;;;;;6.10;4.22;;;;;;;23.60;37.96;99618.78;4330710;33;33957;-61
2023/04/11 04:47:32;;;;;;;6.78;4.28;;;;;;;23.60;37.97;99628.84;4330862;33;33791;-61
2023/04/11 04:50:00;;;;;;;5.62;3.85;;;;;;;23.58;38.05;99620.06;4317296;33;34267;-61
2023/04/11 04:52:28;;;;;;;5.85;4.22;;;;;;;23.57;38.04;99619.22;4330605;33;33087;-61
2023/04/11 04:54:59;;;;;;;8.02;4.07;;;;;;;23.57;38.05;99627.41;4317678;33;32952;-61
2023/04/11 04:57:28;;;;;;;5.72;4.03;;;;;;;23.57;38.08;99621.13;4317353;33;33721;-61
2023/04/11 04:59:56;;;;;;;6.90;3.87;;;;;;;23.57;38.07;99630.13;4329232;33;33553;-60
2023/04/11 05:02:26;;;;;;;5.68;3.85;;;;;;;23.58;38.10;99617.34;4317543;33;33220;-61
2023/04/11 05:04:56;;;;;;;7.15;4.05;;;;;;;23.57;38.04;99613.78;4317330;33;33412;-60
2023/04/11 05:07:25;;;;;;;5.50;4.07;;;;;;;23.57;38.07;99619.22;4330348;33;34404;-61
2023/04/11 05:09:53;;;;;;;7.70;3.97;;;;;;;23.58;38.04;99618.16;4330682;33;34597;-61
2023/04/11 05:12:25;;;;;;;5.50;4.00;;;;;;;23.57;38.04;99618.41;4332172;33;33963;-60
2023/04/11 05:14:55;;;;;;;5.65;3.90;;;;;;;23.56;38.04;99614.84;4331459;33;33982;-60
2023/04/11 05:17:25;;;;;;;5.82;3.75;;;;;;;23.56;38.04;99614.84;4330576;33;34105;-60
2023/04/11 05:19:53;;;;;;;6.50;4.05;;;;;;;23.57;38.00;99612.97;4319196;33;34669;-60
2023/04/11 05:22:20;;;;;;;6.40;3.85;;;;;;;23.56;38.00;99609.41;4332244;33;33232;-61
2023/04/11 05:24:49;;;;;;;6.53;4.05;;;;;;;23.55;38.04;99609.63;4307306;33;33856;-61
2023/04/11 05:27:17;;;;;;;5.93;4.00;;;;;;;23.56;38.02;99608.59;4332351;33;33650;-60
2023/04/11 05:29:45;;;;;;;6.25;4.07;;;;;;;23.56;38.01;99605.84;4332554;33;34262;-61
2023/04/11 05:32:13;;;;;;;5.60;3.78;;;;;;;23.56;38.03;99612.13;4330603;33;32302;-60
2023/04/11 05:34:52;;;;;;;4.97;3.72;;;;;;;23.56;38.03;99612.13;4336689;33;34461;-60
2023/04/11 05:37:24;;;;;;;6.43;3.95;;;;;;;23.56;38.03;99605.84;4345663;33;34849;-61
2023/04/11 05:39:51;;;;;;;6.78;4.00;;;;;;;23.56;38.02;99608.59;4329465;33;33456;-61
2023/04/11 05:42:20;;;;;;;6.10;4.12;;;;;;;23.54;38.00;99602.53;4339592;33;33458;-60
2023/04/11 05:44:48;;;;;;;6.32;3.53;;;;;;;23.54;37.98;99602.53;4317504;33;33640;-61
2023/04/11 05:47:16;;;;;;;5.68;3.78;;;;;;;23.54;38.02;99606.06;4326578;33;33988;-61
2023/04/11 05:49:43;;;;;;;7.35;3.80;;;;;;;23.54;38.00;99605.25;4331944;33;33652;-60
2023/04/11 05:52:11;;;;;;;6.70;3.90;;;;;;;23.53;38.00;99598.97;4330824;33;33952;-60
2023/04/11 05:54:38;;;;;;;6.15;4.10;;;;;;;23.54;37.98;99591.63;4331592;33;34253;-60
2023/04/11 05:57:06;;;;;;;5.45;3.80;;;;;;;23.52;37.99;99583.69;4331937;33;33554;-61
2023/04/11 05:59:34;;;;;;;7.18;4.00;;;;;;;23.54;37.97;99587.00;4330895;33;32756;-60
2023/04/11 06:02:02;;;;;;;5.03;3.47;;;;;;;23.54;37.98;99591.63;4331382;33;33654;-61
2023/04/11 06:04:30;;;;;;;6.07;4.00;;;;;;;23.53;37.98;99589.97;4330838;33;33925;-60
2023/04/11 06:06:58;;;;;;;5.32;3.60;;;;;;;23.53;37.95;99588.06;4330722;33;34815;-61
2023/04/11 06:09:26;;;;;;;6.25;3.97;;;;;;;23.52;37.95;99580.16;4331245;33;34172;-61
2023/04/11 06:11:54;;;;;;;6.15;4.03;;;;;;;23.53;37.93;99582.63;4330912;33;34235;-60
2023/04/11 06:14:21;;;;;;;5.53;3.80;;;;;;;23.52;37.96;99583.69;4332276;33;33869;-61
2023/04/11 06:16:49;;;;;;;6.72;4.07;;;;;;;23.53;37.99;99579.91;4331359;33;34013;-61
2023/04/11 06:19:16;;;;;;;5.35;3.70;;;;;;;23.53;37.98;99584.53;4330666;33;33949;-61
2023/04/11 06:21:44;;;;;;;7.70;3.45;;;;;;;23.52;37.97;99588.31;4329947;33;33312;-61
2023/04/11 06:24:11;;;;;;;6.28;3.62;;;;;;;23.52;37.96;99577.44;4331422;33;34663;-61
2023/04/11 06:26:40;;;;;;;6.35;3.92;;;;;;;23.51;37.99;99568.44;4330832;33;34602;-61
2023/04/11 06:29:07;;;;;;;4.60;3.50;;;;;;;23.52;37.98;99577.44;4330817;33;33852;-60
2023/04/11 06:31:35;;;;;;;6.03;3.80;;;;;;;23.52;37.98;99564.63;4330098;33;33493;-61
2023/04/11 06:34:02;;;;;;;5.43;3.50;;;;;;;23.52;37.98;99566.53;4333574;33;33753;-60
2023/04/11 06:36:31;;;;;;;6.05;3.42;;;;;;;23.53;37.96;99563.56;4335276;33;34687;-61
2023/04/11 06:38:59;;;;;;;5.78;3.50;;;;;;;23.50;37.98;99564.06;4329951;33;33787;-61
2023/04/11 06:41:26;;;;;;;5.10;3.35;;;;;;;23.50;38.02;99557.75;4331625;33;33446;-60
2023/04/11 06:43:54;;;;;;;6.40;3.53;;;;;;;23.50;38.04;99564.06;4330132;33;33861;-61
2023/04/11 06:46:22;;;;;;;5.22;3.62;;;;;;;23.50;38.06;99560.47;4330263;33;33696;-60
2023/04/11 06:48:50;;;;;;;5.75;3.58;;;;;;;23.51;38.04;99567.59;4331694;33;33509;-61
2023/04/11 06:51:17;;;;;;;4.93;3.28;;;;;;;23.51;38.04;99567.59;4331381;33;34263;-60
2023/04/11 06:53:45;;;;;;;5.40;3.35;;;;;;;23.49;38.01;99565.09;4305982;33;32738;-60
2023/04/11 06:56:13;;;;;;;5.72;3.47;;;;;;;23.50;38.00;99564.06;4330281;33;33681;-61
2023/04/11 06:58:40;;;;;;;6.05;3.62;;;;;;;23.50;37.98;99558.59;4330116;33;33949;-60
2023/04/11 07:01:08;;;;;;;6.87;3.70;;;;;;;23.50;37.97;99555.88;4331350;33;33143;-63
2023/04/11 07:03:36;;;;;;;5.35;3.47;;;;;;;23.50;37.99;99550.44;4330297;33;33140;-62
2023/04/11 07:06:06;;;;;;;5.82;3.80;;;;;;;23.50;38.00;99558.59;4336608;33;34742;-63
2023/04/11 07:08:33;;;;;;;7.28;3.70;;;;;;;23.50;37.97;99550.44;4346024;32;33240;-64
2023/04/11 07:11:01;;;;;;;11.12;4.18;;;;;;;23.53;37.86;99554.56;4332636;33;32226;-63
2023/04/11 07:13:29;;;;;;;21.23;4.45;;;;;;;23.56;37.84;99551.37;4332693;33;34245;-63
2023/04/11 07:15:56;;;;;;;18.25;5.12;;;;;;;23.57;37.85;99539.44;4345952;33;34825;-63
2023/04/11 07:18:27;;;;;;;9.68;4.30;;;;;;;23.56;37.93;99530.44;4344966;33;33707;-63
2023/04/11 07:20:55;;;;;;;9.73;4.37;;;;;;;23.57;37.84;99534.81;4344798;33;33305;-61
2023/04/11 07:23:22;;;;;;;10.45;4.47;;;;;;;23.58;37.79;99538.34;4344296;33;33918;-61
2023/04/11 07:25:50;;;;;;;9.38;4.85;;;;;;;23.57;37.75;99534.81;4346396;33;34682;-61
2023/04/11 07:28:18;;;;;;;13.88;7.47;;;;;;;23.58;37.68;99533.75;4344865;33;33381;-63
2023/04/11 07:30:45;;;;;;;14.10;7.60;;;;;;;23.57;37.09;99540.25;4344727;33;33401;-62
2023/04/11 07:33:13;;;;;;;10.48;7.62;;;;;;;23.56;37.11;99537.78;4332512;33;34565;-63
2023/04/11 07:35:40;;;;;;;9.45;6.55;;;;;;;23.57;37.09;99536.69;4333001;33;33719;-63
2023/04/11 07:38:09;;;;;;;11.88;6.47;;;;;;;23.57;37.10;99539.44;4329546;33;33771;-62
2023/04/11 07:40:37;;;;;;;9.80;5.82;;;;;;;23.58;37.08;99539.19;4330183;33;33377;-62
2023/04/11 07:43:06;;;;;;;16.08;5.72;;;;;;;23.58;37.11;99552.78;4318079;33;34591;-62
2023/04/11 07:45:35;;;;;;;14.55;6.50;;;;;;;23.64;37.11;99546.47;4305546;33;35307;-62
2023/04/11 07:48:03;;;;;;;10.77;5.90;;;;;;;23.65;37.20;99553.56;4329887;33;33863;-61
2023/04/11 07:50:30;;;;;;;13.68;5.50;;;;;;;23.64;37.29;99540.16;4330997;33;34321;-62
2023/04/11 07:52:58;;;;;;;17.75;5.65;;;;;;;23.65;37.29;99537.22;4329641;33;32790;-60
2023/04/11 07:55:26;;;;;;;15.63;6.70;;;;;;;23.65;37.31;99537.22;4331131;33;34007;-61
2023/04/11 07:57:53;;;;;;;22.08;6.50;;;;;;;23.67;37.35;99535.09;4331117;33;33641;-62
2023/04/11 08:00:21;;;;;;;14.48;6.30;;;;;;;23.70;37.29;99533.81;4331092;33;33100;-62
2023/04/11 08:02:50;;;;;;;15.43;7.07;;;;;;;23.69;37.32;99534.88;4318039;33;33987;-62
2023/04/11 08:05:18;;;;;;;12.48;6.65;;;;;;;23.68;37.27;99528.56;4318031;33;33717;-61
2023/04/11 08:07:46;;;;;;;15.18;5.85;;;;;;;23.68;37.10;99519.56;4317510;33;33802;-61
2023/04/11 08:10:13;;;;;;;12.15;6.35;;;;;;;23.68;37.08;99523.13;4331115;33;34221;-62
2023/04/11 08:12:41;;;;;;;19.60;6.00;;;;;;;23.68;37.16;99523.13;4329927;33;33809;-63
2023/04/11 08:15:09;;;;;;;12.85;5.93;;;;;;;23.70;37.15;99513.91;4331017;33;34029;-63
2023/04/11 08:17:37;;;;;;;9.70;5.87;;;;;;;23.70;37.10;99508.47;4330731;33;33630;-63
2023/04/11 08:20:08;;;;;;;12.73;6.00;;;;;;;23.71;37.08;99499.22;4331215;33;34033;-64
2023/04/11 08:22:35;;;;;;;12.32;6.20;;;;;;;23.71;37.09;99505.50;4329297;33;33571;-63
2023/04/11 08:25:04;;;;;;;11.12;6.68;;;;;;;23.73;37.07;99507.97;4330844;33;33538;-62
2023/04/11 08:27:32;;;;;;;14.85;6.97;;;;;;;23.73;37.07;99505.25;4330604;33;34477;-62
2023/04/11 08:30:00;;;;;;;16.77;6.30;;;;;;;23.73;37.11;99500.63;4329318;33;33468;-63
2023/04/11 08:32:28;;;;;;;11.68;5.90;;;;;;;23.74;37.14;99493.31;4317472;33;33489;-61
2023/04/11 08:34:55;;;;;;;14.05;6.15;;;;;;;23.74;37.19;99485.13;4331689;33;34664;-62
2023/04/11 08:37:22;;;;;;;9.38;5.68;;;;;;;23.75;37.22;99479.44;4330256;33;33968;-62
2023/04/11 08:39:50;;;;;;;12.95;6.10;;;;;;;23.76;37.26;99469.38;4305616;33;33051;-62
2023/04/11 08:42:28;;;;;;;8.57;5.68;;;;;;;23.77;37.26;99460.94;4330627;33;33824;-62
2023/04/11 08:44:57;;;;;;;15.30;6.50;;;;;;;23.80;37.27;99460.50;4330862;33;33627;-62
2023/04/11 08:47:25;;;;;;;16.62;10.18;;;;;;;23.78;37.24;99459.06;4319293;33;32758;-62
2023/04/11 08:49:53;;;;;;;12.23;8.30;;;;;;;23.80;36.87;99460.50;4331327;33;33425;-62
2023/04/11 08:52:22;;;;;;;13.95;9.27;;;;;;;23.80;36.75;99454.22;4330520;33;33716;-62
2023/04/11 08:54:53;;;;;;;11.80;8.65;;;;;;;23.80;36.66;99444.13;4331340;33;33488;-62
2023/04/11 08:57:33;;;;;;;11.00;8.68;;;;;;;23.78;36.67;99440.84;4318973;33;33302;-62
2023/04/11 09:00:21;;;;;;;11.82;6.68;;;;;;;23.78;36.53;99438.13;4320170;33;34115;-62
2023/04/11 09:02:55;;;;;;;13.75;7.20;;;;;;;23.78;36.78;99445.44;4310737;33;33415;-62
2023/04/11 09:05:30;;;;;;;13.73;9.90;;;;;;;23.79;36.79;99438.94;4332574;33;33901;-63
2023/04/11 09:08:02;;;;;;;12.52;8.30;;;;;;;23.79;36.61;99444.37;4318781;33;32723;-63
2023/04/11 09:10:29;;;;;;;11.57;7.37;;;;;;;23.77;36.71;99441.06;4319701;33;34193;-62
2023/04/11 09:12:57;;;;;;;13.60;7.95;;;;;;;23.77;36.74;99436.44;4336695;33;33863;-62
2023/04/11 09:15:28;;;;;;;14.20;8.27;;;;;;;23.77;36.72;99446.50;4345517;33;34588;-62
2023/04/11 09:17:56;;;;;;;13.27;8.23;;;;;;;23.77;36.68;99430.16;4345580;33;34277;-62
2023/04/11 09:20:31;;;;;;;15.65;8.50;;;;;;;23.77;36.61;99427.44;4345871;33;33230;-62
2023/04/11 09:22:58;;;;;;;15.15;8.70;;;;;;;23.77;36.61;99424.72;4345149;33;34524;-62
2023/04/11 09:25:26;;;;;;;12.65;8.23;;;;;;;23.78;36.56;99416.31;4344907;33;34120;-62
2023/04/11 09:28:07;;;;;;;12.48;7.90;;;;;;;23.78;36.53;99407.28;4330808;33;34021;-62
2023/04/11 09:30:35;;;;;;;10.20;7.45;;;;;;;23.80;36.49;99408.72;4344670;33;33606;-62
2023/04/11 09:33:22;;;;;;;10.80;7.12;;;;;;;23.80;36.47;99405.19;4346243;33;34820;-62
2023/04/11 09:35:51;;;;;;;9.73;6.45;;;;;;;23.82;36.47;99403.84;4337002;33;33728;-61
2023/04/11 09:38:33;;;;;;;14.15;7.57;;;;;;;23.81;36.48;99404.09;4313118;33;33887;-62
2023/04/11 09:41:01;;;;;;;11.45;7.32;;;;;;;23.84;36.52;99407.19;4325384;33;33467;-62
2023/04/11 09:43:50;;;;;;;11.20;7.30;;;;;;;23.83;36.59;99410.16;4316647;33;34005;-62
2023/04/11 09:46:19;;;;;;;17.20;7.70;;;;;;;23.87;36.64;99403.12;4317320;33;34485;-62
2023/04/11 09:48:48;;;;;;;13.35;7.25;;;;;;;23.84;36.70;99395.47;4327808;33;35050;-62
2023/04/11 09:51:16;;;;;;;15.73;7.53;;;;;;;23.85;36.74;99397.94;4314410;33;33096;-62
2023/04/11 09:54:02;;;;;;;15.13;6.97;;;;;;;23.85;36.77;99386.22;4318564;33;34307;-62
2023/04/11 09:56:30;;;;;;;13.27;7.00;;;;;;;23.87;36.77;99389.50;4307409;33;33728;-62
2023/04/11 09:58:58;;;;;;;13.62;7.05;;;;;;;23.86;36.77;99377.78;4292364;33;33324;-62
2023/04/11 10:01:26;;;;;;;11.48;7.18;;;;;;;23.87;36.77;99375.87;4315210;33;32346;-62
2023/04/11 10:03:54;;;;;;;13.98;6.75;;;;;;;23.87;36.76;99373.16;4328941;33;33796;-62
2023/04/11 10:06:37;;;;;;;10.85;6.95;;;;;;;23.86;36.74;99376.97;4330191;33;34010;-62
2023/04/11 10:09:09;;;;;;;14.30;7.28;;;;;;;23.86;36.72;99366.88;4316843;33;33392;-62
2023/04/11 10:11:41;;;;;;;15.35;7.30;;;;;;;23.85;36.70;99373.41;4329965;33;33442;-62
2023/04/11 10:14:37;;;;;;;10.95;6.62;;;;;;;23.85;36.69;99370.69;4330052;33;32855;-62
2023/04/11 10:17:17;;;;;;;15.80;6.70;;;;;;;23.87;36.65;99370.44;4329990;33;34514;-62
2023/04/11 10:19:55;;;;;;;12.88;6.95;;;;;;;23.85;36.66;99356.25;4318892;33;34450;-62
2023/04/11 10:22:45;;;;;;;12.23;6.65;;;;;;;23.83;36.67;99347.50;4317752;33;34286;-63
2023/04/11 10:25:19;;;;;;;9.88;7.00;;;;;;;23.85;36.63;99346.16;4331242;33;33734;-62
2023/04/11 10:27:59;;;;;;;10.88;7.00;;;;;;;23.82;36.66;99343.91;4317869;33;33882;-62
2023/04/11 10:30:39;;;;;;;10.90;6.85;;;;;;;23.82;36.64;99334.91;4329508;33;33594;-63
2023/04/11 10:33:10;;;;;;;11.50;7.18;;;;;;;23.82;36.61;99335.75;4329263;33;33317;-62
2023/04/11 10:35:58;;;;;;;8.45;6.45;;;;;;;23.80;36.60;99329.72;4329896;33;32694;-62
2023/04/11 10:38:47;;;;;;;12.93;6.15;;;;;;;23.81;36.58;99317.75;4330526;33;34574;-62
2023/04/11 10:41:26;;;;;;;10.00;6.07;;;;;;;23.80;36.61;99324.28;4330776;33;33982;-63
2023/04/11 10:44:13;;;;;;;12.77;6.55;;;;;;;23.78;36.62;99320.97;4331225;33;33512;-62
2023/04/11 10:46:49;;;;;;;10.60;6.25;;;;;;;23.78;36.62;99320.13;4315588;33;33892;-63
2023/04/11 10:49:36;;;;;;;9.88;6.22;;;;;;;23.76;36.63;99314.91;4325375;33;34171;-63
2023/04/11 10:52:21;;;;;;;10.05;6.12;;;;;;;23.77;36.63;99307.56;4318150;33;33820;-63
2023/04/11 10:54:50;;;;;;;14.05;7.70;;;;;;;23.77;36.62;99302.13;4329772;33;32596;-64
2023/04/11 10:57:17;;;;;;;12.10;5.90;;;;;;;23.73;36.64;99301.75;4329507;33;33935;-62
2023/04/11 10:59:48;;;;;;;10.85;6.25;;;;;;;23.73;36.65;99292.78;4305234;33;33924;-62
2023/04/11 11:02:15;;;;;;;9.77;6.25;;;;;;;23.72;36.64;99297.41;4330805;33;34574;-62
2023/04/11 11:04:43;;;;;;;10.88;6.15;;;;;;;23.72;36.62;99282.94;4324198;33;33546;-62
2023/04/11 11:07:12;;;;;;;10.07;6.68;;;;;;;23.71;36.63;99298.47;4309454;33;34647;-63
2023/04/11 11:09:39;;;;;;;11.98;6.40;;;;;;;23.71;36.63;99292.19;4305029;33;33523;-62
2023/04/11 11:12:14;;;;;;;10.45;6.50;;;;;;;23.70;36.63;99279.66;4318065;33;33817;-63
2023/04/11 11:14:43;;;;;;;11.55;6.25;;;;;;;23.70;36.60;99276.94;4329192;33;33471;-62
2023/04/11 11:17:11;;;;;;;9.52;5.80;;;;;;;23.68;36.60;99266.25;4318136;33;33792;-62
2023/04/11 11:19:46;;;;;;;11.23;6.03;;;;;;;23.69;36.59;99262.47;4317131;33;33289;-62
2023/04/11 11:22:14;;;;;;;11.35;6.03;;;;;;;23.68;36.58;99268.97;4329002;33;34596;-62
2023/04/11 11:24:42;;;;;;;14.18;6.97;;;;;;;23.67;36.59;99261.87;4330228;33;32577;-62
2023/04/11 11:27:21;;;;;;;9.27;6.00;;;;;;;23.66;36.59;99252.88;4330515;33;33446;-62
2023/04/11 11:29:49;;;;;;;9.40;5.82;;;;;;;23.67;36.59;99256.44;4329241;33;34088;-62
2023/04/11 11:32:21;;;;;;;10.00;5.68;;;;;;;23.65;36.59;99251.25;4316683;33;33806;-62
2023/04/11 11:34:51;;;;;;;8.45;5.55;;;;;;;23.64;36.62;99246.00;4329525;33;33725;-62
2023/04/11 11:37:20;;;;;;;11.50;6.85;;;;;;;23.62;36.62;99238.06;4329160;33;33724;-62
2023/04/11 11:39:48;;;;;;;9.88;5.50;;;;;;;23.62;36.61;99238.06;4325437;33;34529;-62
2023/04/11 11:42:15;;;;;;;9.13;5.85;;;;;;;23.61;36.62;99233.69;4315585;33;33485;-62